Time;durP1;ratioP1;P1;durP2;ratioP2;P2;SDS_P1;SDS_P2;PMS_P1;PMS_P2;Temp;Humidity;BMP_temperature;BMP_pressure;BME280_temperature;BME280_humidity;BME280_pressure;Samples;Min_cycle;Max_cycle;Signal;HPM_P1;HPM_P2
2022/06/10 00:00:08;;;;;;;3.60;1.70;;;18.70;99.90;;;;;;1043511;28;20456;-72
2022/06/10 00:00:41;;;;;;;3.58;1.80;;;18.70;99.90;;;;;;1043149;28;20021;-71
2022/06/10 00:01:12;;;;;;;3.88;1.50;;;18.70;99.90;;;;;;1043309;28;20506;-72
2022/06/10 00:01:42;;;;;;;4.60;1.58;;;18.70;99.90;;;;;;1043253;28;20758;-71
2022/06/10 00:02:13;;;;;;;3.47;1.77;;;18.70;99.90;;;;;;1043429;28;20534;-72
2022/06/10 00:02:44;;;;;;;4.20;1.70;;;18.70;99.90;;;;;;1043258;28;20032;-74
2022/06/10 00:03:15;;;;;;;2.73;1.40;;;18.70;99.90;;;;;;1043369;28;20044;-73
2022/06/10 00:03:46;;;;;;;3.35;1.52;;;18.70;99.90;;;;;;1043143;28;20100;-73
2022/06/10 00:04:17;;;;;;;4.40;1.37;;;18.60;99.90;;;;;;1043262;28;20021;-73
2022/06/10 00:04:47;;;;;;;4.07;1.70;;;18.60;99.90;;;;;;1043266;28;20017;-73
2022/06/10 00:05:22;;;;;;;4.23;1.80;;;18.70;99.90;;;;;;1043215;28;20042;-72
2022/06/10 00:05:58;;;;;;;4.07;1.73;;;18.60;99.90;;;;;;1043343;28;20065;-74
2022/06/10 00:06:28;;;;;;;3.88;1.80;;;18.60;99.90;;;;;;1042913;28;20028;-74
2022/06/10 00:06:59;;;;;;;7.43;1.63;;;18.60;99.90;;;;;;1042868;28;20067;-72
2022/06/10 00:07:34;;;;;;;3.00;1.47;;;18.60;99.90;;;;;;1043027;28;20025;-74
2022/06/10 00:08:11;;;;;;;5.18;1.88;;;18.60;99.90;;;;;;1042910;28;20024;-71
2022/06/10 00:08:44;;;;;;;3.20;1.50;;;18.60;99.90;;;;;;1043141;28;20078;-73
2022/06/10 00:09:15;;;;;;;3.10;1.67;;;18.60;99.90;;;;;;1043212;28;20078;-74
2022/06/10 00:09:46;;;;;;;3.30;1.50;;;18.60;99.90;;;;;;1043439;28;20028;-72
2022/06/10 00:10:19;;;;;;;5.13;1.73;;;18.60;99.90;;;;;;1043351;28;20009;-72
2022/06/10 00:10:51;;;;;;;3.40;1.80;;;18.60;99.90;;;;;;1043404;28;20052;-71
2022/06/10 00:11:22;;;;;;;5.07;1.98;;;18.60;99.90;;;;;;1043203;28;20690;-73
2022/06/10 00:11:53;;;;;;;3.03;1.80;;;18.50;99.90;;;;;;1043626;28;20644;-72
2022/06/10 00:12:23;;;;;;;4.47;1.92;;;18.60;99.90;;;;;;1042996;28;20013;-73
2022/06/10 00:12:54;;;;;;;4.47;1.83;;;18.50;99.90;;;;;;1043483;28;20020;-72
2022/06/10 00:13:27;;;;;;;4.47;1.52;;;18.50;99.90;;;;;;1042590;28;20100;-71
2022/06/10 00:13:57;;;;;;;4.90;2.13;;;18.50;99.90;;;;;;1042957;28;20056;-71
2022/06/10 00:14:28;;;;;;;3.53;1.80;;;18.50;99.90;;;;;;1042990;28;20123;-72
2022/06/10 00:14:58;;;;;;;3.97;1.93;;;18.50;99.90;;;;;;1042893;28;20040;-73
2022/06/10 00:15:29;;;;;;;3.30;1.30;;;18.50;99.90;;;;;;1043249;28;20388;-73
2022/06/10 00:16:01;;;;;;;5.17;2.03;;;18.50;99.90;;;;;;1043397;28;20040;-73
2022/06/10 00:16:31;;;;;;;3.22;1.65;;;18.50;99.90;;;;;;1043211;28;20440;-73
2022/06/10 00:17:02;;;;;;;5.70;1.63;;;18.50;99.90;;;;;;1043442;28;20384;-73
2022/06/10 00:17:33;;;;;;;4.50;1.57;;;18.50;99.90;;;;;;1043278;28;20025;-72
2022/06/10 00:18:05;;;;;;;3.97;1.75;;;18.50;99.90;;;;;;1043483;28;20063;-72
2022/06/10 00:18:36;;;;;;;4.70;2.13;;;18.50;99.90;;;;;;1043234;28;20510;-72
2022/06/10 00:19:06;;;;;;;3.75;1.65;;;18.50;99.90;;;;;;1043281;28;20437;-72
2022/06/10 00:19:37;;;;;;;3.03;1.60;;;18.50;99.90;;;;;;1043257;28;20021;-72
2022/06/10 00:20:10;;;;;;;2.57;1.43;;;18.50;99.90;;;;;;1043226;28;20017;-74
2022/06/10 00:20:41;;;;;;;3.65;1.40;;;18.50;99.90;;;;;;1043080;28;20028;-72
2022/06/10 00:21:14;;;;;;;3.10;1.67;;;18.50;99.90;;;;;;1043437;28;20060;-71
2022/06/10 00:21:45;;;;;;;2.72;1.80;;;18.50;99.90;;;;;;1042736;28;20036;-71
2022/06/10 00:22:15;;;;;;;3.43;1.73;;;18.40;99.90;;;;;;1043147;28;20060;-72
2022/06/10 00:22:46;;;;;;;3.53;1.77;;;18.50;99.90;;;;;;1042728;28;20108;-73
2022/06/10 00:23:16;;;;;;;3.57;1.60;;;18.50;99.90;;;;;;1042925;28;20103;-73
2022/06/10 00:23:47;;;;;;;2.40;1.40;;;18.40;99.90;;;;;;1042765;28;20126;-72
2022/06/10 00:24:17;;;;;;;3.87;1.80;;;18.40;99.90;;;;;;1042939;28;20021;-69
2022/06/10 00:24:51;;;;;;;3.93;1.50;;;18.40;99.90;;;;;;1042848;28;20025;-72
2022/06/10 00:25:22;;;;;;;4.50;1.83;;;18.40;99.90;;;;;;1042671;28;20504;-73
2022/06/10 00:25:53;;;;;;;6.13;1.92;;;18.40;99.90;;;;;;1043189;28;20020;-72
2022/06/10 00:26:24;;;;;;;4.25;1.60;;;18.40;99.90;;;;;;1042782;28;20028;-72
2022/06/10 00:26:55;;;;;;;3.60;1.50;;;18.40;99.90;;;;;;1042936;28;20059;-72
2022/06/10 00:27:25;;;;;;;4.13;2.03;;;18.40;99.90;;;;;;1042864;28;20076;-73
2022/06/10 00:27:56;;;;;;;4.47;1.60;;;18.40;99.90;;;;;;1042833;28;20722;-71
2022/06/10 00:28:26;;;;;;;1.97;1.27;;;18.40;99.90;;;;;;1042972;28;20150;-73
2022/06/10 00:29:01;;;;;;;6.20;2.47;;;18.40;99.90;;;;;;1042731;28;20116;-72
2022/06/10 00:29:32;;;;;;;6.78;2.00;;;18.40;99.90;;;;;;1043008;28;20067;-72
2022/06/10 00:30:04;;;;;;;6.82;1.98;;;18.40;99.90;;;;;;1042642;28;20063;-72
2022/06/10 00:30:36;;;;;;;4.65;1.60;;;18.40;99.90;;;;;;1043010;28;20067;-72
2022/06/10 00:31:07;;;;;;;3.67;2.08;;;18.40;99.90;;;;;;1042700;28;20026;-72
2022/06/10 00:31:37;;;;;;;4.50;1.63;;;18.40;99.90;;;;;;1042935;28;20033;-72
2022/06/10 00:32:08;;;;;;;2.67;1.33;;;18.40;99.90;;;;;;1043112;28;20029;-75
2022/06/10 00:32:39;;;;;;;3.97;1.20;;;18.40;99.90;;;;;;1043105;28;20021;-72
2022/06/10 00:33:10;;;;;;;3.40;1.67;;;18.40;99.90;;;;;;1043065;28;20025;-72
2022/06/10 00:33:40;;;;;;;3.50;1.67;;;18.40;99.90;;;;;;1041953;28;20047;-72
2022/06/10 00:34:11;;;;;;;4.40;1.87;;;18.40;99.90;;;;;;1038564;28;20017;-71
2022/06/10 00:34:42;;;;;;;4.43;1.97;;;18.40;99.90;;;;;;1038677;28;20033;-73
2022/06/10 00:35:13;;;;;;;3.03;1.67;;;18.40;99.90;;;;;;1038872;28;20013;-70
2022/06/10 00:35:44;;;;;;;4.53;1.48;;;18.40;99.90;;;;;;1038770;28;20563;-73
2022/06/10 00:36:15;;;;;;;4.90;2.03;;;18.40;99.90;;;;;;1038768;28;20719;-72
2022/06/10 00:36:46;;;;;;;5.10;1.58;;;18.40;99.90;;;;;;1038915;28;20026;-73
2022/06/10 00:37:17;;;;;;;3.10;1.70;;;18.40;99.90;;;;;;1038789;28;20024;-72
2022/06/10 00:37:48;;;;;;;3.08;1.92;;;18.40;99.90;;;;;;1038771;28;20037;-72
2022/06/10 00:38:19;;;;;;;3.20;1.77;;;18.40;99.90;;;;;;1038654;28;20021;-72
2022/06/10 00:38:50;;;;;;;3.38;1.92;;;18.40;99.90;;;;;;1038842;28;21101;-73
2022/06/10 00:39:21;;;;;;;4.15;1.67;;;18.40;99.90;;;;;;1038599;28;20164;-73
2022/06/10 00:39:51;;;;;;;8.50;1.90;;;18.40;99.90;;;;;;1038639;28;20202;-73
2022/06/10 00:40:29;;;;;;;4.30;1.80;;;18.40;99.90;;;;;;1038831;28;20024;-73
2022/06/10 00:41:00;;;;;;;2.88;1.58;;;18.40;99.90;;;;;;1038864;28;20122;-73
2022/06/10 00:41:31;;;;;;;4.20;1.67;;;18.40;99.90;;;;;;1038671;28;20168;-70
2022/06/10 00:42:04;;;;;;;3.80;1.77;;;18.40;99.90;;;;;;1038767;28;20017;-73
2022/06/10 00:42:37;;;;;;;4.20;2.10;;;18.40;99.90;;;;;;1038681;28;20602;-72
2022/06/10 00:43:16;;;;;;;4.63;2.10;;;18.40;99.90;;;;;;1041137;28;20178;-72
2022/06/10 00:43:48;;;;;;;2.42;1.50;;;18.30;99.90;;;;;;1038995;28;20026;-72
2022/06/10 00:44:39;;;;;;;5.90;1.73;;;18.40;99.90;;;;;;1039140;28;20021;-73
2022/06/10 00:45:44;;;;;;;3.83;1.95;;;18.40;99.90;;;;;;1039039;28;20017;-73
2022/06/10 00:46:20;;;;;;;6.18;1.90;;;18.30;99.90;;;;;;1039175;28;20108;-73
2022/06/10 00:46:50;;;;;;;3.88;1.95;;;18.30;99.90;;;;;;1038997;28;20105;-73
2022/06/10 00:47:35;;;;;;;2.90;1.73;;;18.30;99.90;;;;;;1038677;28;20028;-73
2022/06/10 00:48:10;;;;;;;3.78;1.77;;;18.30;99.90;;;;;;1038579;28;20025;-73
2022/06/10 00:48:53;;;;;;;3.58;1.73;;;18.30;99.90;;;;;;1038658;28;20112;-71
2022/06/10 00:49:24;;;;;;;5.55;1.80;;;18.30;99.90;;;;;;1042730;28;20028;-72
2022/06/10 00:49:58;;;;;;;4.72;1.63;;;18.30;99.90;;;;;;1038639;28;20058;-71
2022/06/10 00:50:31;;;;;;;4.70;1.40;;;18.30;99.90;;;;;;1038767;28;20085;-72
2022/06/10 00:51:33;;;;;;;6.90;2.42;;;18.30;99.90;;;;;;1038529;28;20128;-73
2022/06/10 00:52:04;;;;;;;4.35;1.77;;;18.30;99.90;;;;;;1034099;28;20167;-71
2022/06/10 00:52:38;;;;;;;3.47;1.77;;;18.30;99.90;;;;;;1034556;28;20057;-72
2022/06/10 00:53:12;;;;;;;5.80;1.83;;;18.30;99.90;;;;;;1038572;28;20028;-74
2022/06/10 00:53:44;;;;;;;4.40;2.05;;;18.30;99.90;;;;;;1035548;28;20190;-72
2022/06/10 00:54:36;;;;;;;9.40;2.03;;;18.30;99.90;;;;;;1039934;28;20472;-73
2022/06/10 00:55:07;;;;;;;4.00;1.90;;;18.30;99.90;;;;;;1042732;28;20013;-72
2022/06/10 00:55:40;;;;;;;3.10;1.33;;;18.20;99.90;;;;;;1042968;28;20013;-72
2022/06/10 00:56:16;;;;;;;2.90;1.70;;;18.20;99.90;;;;;;1042850;28;20012;-71
2022/06/10 00:57:01;;;;;;;2.80;1.77;;;18.20;99.90;;;;;;1042855;28;20543;-72
2022/06/10 00:57:38;;;;;;;2.63;1.52;;;18.20;99.90;;;;;;1042731;28;20013;-72
2022/06/10 00:58:20;;;;;;;5.03;1.67;;;18.20;99.90;;;;;;1043137;28;20013;-72
2022/06/10 00:58:59;;;;;;;5.07;2.22;;;18.20;99.90;;;;;;1042737;28;20025;-70
2022/06/10 00:59:34;;;;;;;;;;;18.20;99.90;;;;;;1039069;28;20010;-72
2022/06/10 01:00:09;;;;;;;6.35;1.92;;;18.20;99.90;;;;;;1038622;28;19968;-73
2022/06/10 01:00:40;;;;;;;4.90;2.00;;;18.20;99.90;;;;;;1038662;28;20540;-72
2022/06/10 01:01:12;;;;;;;2.97;2.13;;;18.20;99.90;;;;;;1039235;28;20460;-72
2022/06/10 01:01:44;;;;;;;3.88;1.90;;;18.20;99.90;;;;;;1038728;28;20531;-71
2022/06/10 01:02:18;;;;;;;3.83;2.10;;;18.20;99.90;;;;;;1042721;28;20079;-72
2022/06/10 01:02:48;;;;;;;5.72;1.77;;;18.20;99.90;;;;;;1038322;28;20018;-70
2022/06/10 01:03:19;;;;;;;4.07;1.93;;;18.20;99.90;;;;;;1038721;28;20063;-71
2022/06/10 01:03:50;;;;;;;3.43;1.50;;;18.20;99.90;;;;;;1038605;28;20659;-71
2022/06/10 01:04:21;;;;;;;3.60;1.70;;;18.20;99.90;;;;;;1034536;28;20041;-72
2022/06/10 01:04:55;;;;;;;4.20;1.80;;;18.20;99.90;;;;;;1038539;28;20018;-71
2022/06/10 01:05:27;;;;;;;4.72;1.92;;;18.20;99.90;;;;;;1038746;28;20110;-74
2022/06/10 01:05:58;;;;;;;4.30;2.22;;;18.20;99.90;;;;;;1038436;28;20013;-72
2022/06/10 01:06:28;;;;;;;4.70;1.90;;;18.20;99.90;;;;;;1039313;28;20013;-74
2022/06/10 01:06:59;;;;;;;3.60;1.77;;;18.20;99.90;;;;;;1038891;28;20108;-73
2022/06/10 01:07:36;;;;;;;4.90;2.13;;;18.20;99.90;;;;;;1039102;28;20017;-73
2022/06/10 01:08:14;;;;;;;3.55;1.60;;;18.20;99.90;;;;;;1038784;28;20020;-73
2022/06/10 01:08:46;;;;;;;2.85;1.70;;;18.20;99.90;;;;;;1038683;28;20053;-72
2022/06/10 01:09:17;;;;;;;4.28;1.70;;;18.20;99.90;;;;;;1038574;28;20018;-73
2022/06/10 01:09:50;;;;;;;3.53;1.90;;;18.20;99.90;;;;;;1034668;28;20025;-73
2022/06/10 01:10:21;;;;;;;5.03;2.58;;;18.20;99.90;;;;;;1035132;28;20119;-72
2022/06/10 01:11:23;;;;;;;5.50;2.10;;;18.20;99.90;;;;;;1034516;28;20084;-73
2022/06/10 01:12:27;;;;;;;5.50;2.15;;;18.20;99.90;;;;;;1038714;28;20013;-72
2022/06/10 01:13:09;;;;;;;4.05;1.98;;;18.20;99.90;;;;;;1038471;28;20796;-71
2022/06/10 01:14:01;;;;;;;3.92;2.03;;;18.20;99.90;;;;;;1034446;28;20231;-71
2022/06/10 01:14:35;;;;;;;3.05;1.95;;;18.20;99.90;;;;;;1034967;28;20585;-72
2022/06/10 01:15:43;;;;;;;3.53;2.17;;;18.20;99.90;;;;;;1038642;28;20032;-72
2022/06/10 01:16:35;;;;;;;3.45;1.70;;;18.20;99.90;;;;;;1038808;28;20053;-72
2022/06/10 01:17:26;;;;;;;4.55;2.15;;;18.20;99.90;;;;;;1038899;28;20031;-72
2022/06/10 01:18:23;;;;;;;3.50;2.05;;;18.20;99.90;;;;;;1038980;28;20040;-71
2022/06/10 01:19:21;;;;;;;6.28;1.80;;;18.20;99.90;;;;;;1038912;28;20045;-72
2022/06/10 01:20:23;;;;;;;6.15;2.10;;;18.20;99.90;;;;;;1038810;28;20461;-71
2022/06/10 01:21:10;;;;;;;3.70;2.15;;;18.20;99.90;;;;;;1038994;28;20082;-71
2022/06/10 01:22:00;;;;;;;6.22;2.05;;;18.10;99.90;;;;;;1038876;28;20120;-70
2022/06/10 01:22:55;;;;;;;4.90;2.38;;;18.10;99.90;;;;;;1039033;28;20018;-71
2022/06/10 01:23:44;;;;;;;4.15;1.92;;;18.10;99.90;;;;;;1039148;28;20033;-71
2022/06/10 01:24:49;;;;;;;4.00;1.92;;;18.10;99.90;;;;;;1038545;28;20124;-70
2022/06/10 01:25:40;;;;;;;4.43;1.75;;;18.10;99.90;;;;;;1038659;28;20120;-71
2022/06/10 01:27:47;;;;;;;5.57;2.20;;;18.10;99.90;;;;;;1038859;28;20032;-72
2022/06/10 01:27:49;;;;;;;6.57;2.35;;;18.10;99.90;;;;;;1038917;28;20033;-72
2022/06/10 01:28:35;;;;;;;4.30;1.98;;;18.10;99.90;;;;;;1038871;28;20034;-72
2022/06/10 01:29:28;;;;;;;4.82;2.17;;;18.00;99.90;;;;;;1038729;28;20104;-71
2022/06/10 01:30:17;;;;;;;3.75;2.28;;;18.00;99.90;;;;;;1038720;28;20029;-72
2022/06/10 01:31:10;;;;;;;4.20;2.10;;;18.00;99.90;;;;;;1038974;28;20030;-71
2022/06/10 01:32:02;;;;;;;5.10;1.80;;;18.00;99.90;;;;;;1039027;28;20106;-72
2022/06/10 01:32:43;;;;;;;4.05;2.10;;;18.00;99.90;;;;;;1038851;28;20574;-72
2022/06/10 01:33:32;;;;;;;3.67;1.70;;;18.00;99.90;;;;;;1038494;28;20022;-71
2022/06/10 01:34:26;;;;;;;3.10;2.00;;;18.00;99.90;;;;;;1038654;28;20017;-72
2022/06/10 01:35:12;;;;;;;4.95;2.60;;;18.00;99.90;;;;;;1038745;28;20048;-72
2022/06/10 01:35:49;;;;;;;4.97;1.95;;;18.00;99.90;;;;;;1038881;28;20023;-72
2022/06/10 01:36:39;;;;;;;3.05;1.73;;;18.00;99.90;;;;;;1038725;28;20052;-73
2022/06/10 01:37:19;;;;;;;3.25;2.05;;;18.00;99.90;;;;;;1038109;28;20017;-72
2022/06/10 01:38:24;;;;;;;3.38;2.13;;;18.00;99.90;;;;;;1038326;28;20013;-71
2022/06/10 01:39:02;;;;;;;5.72;1.60;;;18.00;99.90;;;;;;1038647;28;20101;-73
2022/06/10 01:39:47;;;;;;;4.90;2.03;;;18.00;99.90;;;;;;1038422;28;20160;-70
2022/06/10 01:40:34;;;;;;;2.35;1.65;;;18.00;99.90;;;;;;1038573;28;20021;-70
2022/06/10 01:41:19;;;;;;;2.92;2.08;;;18.00;99.90;;;;;;1038524;28;20022;-74
2022/06/10 01:41:59;;;;;;;2.63;1.55;;;18.00;99.90;;;;;;1038564;28;20018;-72
2022/06/10 01:42:45;;;;;;;4.35;2.45;;;18.00;99.90;;;;;;1039016;28;20021;-73
2022/06/10 01:43:37;;;;;;;3.10;1.95;;;18.00;99.90;;;;;;1039101;28;20014;-71
2022/06/10 01:44:19;;;;;;;3.35;1.60;;;18.00;99.90;;;;;;1041413;28;20096;-72
2022/06/10 01:45:10;;;;;;;3.47;1.85;;;18.00;99.90;;;;;;1042759;28;20407;-72
2022/06/10 01:45:49;;;;;;;3.47;1.60;;;18.00;99.90;;;;;;1042454;28;20070;-72
2022/06/10 01:46:32;;;;;;;3.15;1.63;;;18.00;99.90;;;;;;1042540;28;20009;-72
2022/06/10 01:47:31;;;;;;;4.60;1.85;;;18.00;99.90;;;;;;1042239;28;20016;-72
2022/06/10 01:48:05;;;;;;;4.10;2.03;;;18.00;99.90;;;;;;1042885;28;20486;-73
2022/06/10 01:48:55;;;;;;;5.85;2.28;;;18.00;99.90;;;;;;1042728;28;20025;-73
2022/06/10 01:49:56;;;;;;;4.03;1.73;;;18.00;99.90;;;;;;1042741;28;20575;-72
2022/06/10 01:50:39;;;;;;;5.07;1.77;;;18.00;99.90;;;;;;1042150;28;20032;-72
2022/06/10 01:51:23;;;;;;;3.28;1.70;;;18.00;99.90;;;;;;1043006;28;20514;-72
2022/06/10 01:52:05;;;;;;;3.08;1.73;;;18.00;99.90;;;;;;1042736;28;20019;-71
2022/06/10 01:52:48;;;;;;;4.22;1.70;;;18.00;99.90;;;;;;1042759;28;20009;-72
2022/06/10 01:53:34;;;;;;;5.68;2.00;;;18.00;99.90;;;;;;1042253;28;20104;-73
2022/06/10 01:54:13;;;;;;;4.88;1.55;;;18.00;99.90;;;;;;1042833;28;20356;-73
2022/06/10 01:54:48;;;;;;;7.43;2.00;;;18.00;99.90;;;;;;1038568;28;20017;-73
2022/06/10 01:55:43;;;;;;;5.75;1.73;;;18.00;99.90;;;;;;1038868;28;20020;-70
2022/06/10 01:56:23;;;;;;;2.90;1.55;;;17.90;99.90;;;;;;1038833;28;20042;-72
2022/06/10 01:56:57;;;;;;;3.88;2.15;;;18.00;99.90;;;;;;1038959;28;20012;-72
2022/06/10 01:57:35;;;;;;;6.28;2.50;;;18.00;99.90;;;;;;1038337;28;20456;-71
2022/06/10 01:58:36;;;;;;;6.28;2.03;;;17.90;99.90;;;;;;1034515;28;20020;-72
2022/06/10 01:59:13;;;;;;;3.38;1.67;;;17.90;99.90;;;;;;1031522;28;20527;-72
2022/06/10 01:59:50;;;;;;;5.78;2.60;;;18.00;99.90;;;;;;1042632;28;20140;-73
2022/06/10 02:00:25;;;;;;;3.40;2.10;;;18.00;99.90;;;;;;1042874;28;20005;-71
2022/06/10 02:01:02;;;;;;;3.58;1.73;;;18.00;99.90;;;;;;1042539;28;20013;-72
2022/06/10 02:01:38;;;;;;;3.15;1.83;;;18.00;99.90;;;;;;1042960;28;20009;-71
2022/06/10 02:02:20;;;;;;;3.05;1.70;;;18.00;99.90;;;;;;1042745;28;20033;-72
2022/06/10 02:03:07;;;;;;;3.20;1.90;;;17.90;99.90;;;;;;1042534;28;20100;-72
2022/06/10 02:03:53;;;;;;;5.32;1.75;;;17.90;99.90;;;;;;1042469;28;20048;-70
2022/06/10 02:04:30;;;;;;;5.05;2.42;;;17.90;99.90;;;;;;1043102;28;20040;-72
2022/06/10 02:05:12;;;;;;;6.47;2.55;;;17.90;99.90;;;;;;1042861;28;20040;-72
2022/06/10 02:05:55;;;;;;;4.50;1.63;;;17.90;99.90;;;;;;1043020;28;20068;-73
2022/06/10 02:06:51;;;;;;;4.35;1.98;;;17.90;99.90;;;;;;1043005;28;20044;-72
2022/06/10 02:07:34;;;;;;;4.75;1.73;;;17.90;99.90;;;;;;1039694;28;20065;-72
2022/06/10 02:08:29;;;;;;;6.22;2.25;;;17.90;99.90;;;;;;1042879;28;20006;-72
2022/06/10 02:09:04;;;;;;;4.30;2.17;;;17.90;99.90;;;;;;1033811;28;20165;-73
2022/06/10 02:09:40;;;;;;;3.78;1.90;;;17.90;99.90;;;;;;1034438;28;20022;-72
2022/06/10 02:10:36;;;;;;;4.38;2.10;;;17.90;99.90;;;;;;1034202;28;20456;-72
2022/06/10 02:11:12;;;;;;;4.38;2.40;;;17.90;99.90;;;;;;1038089;28;20025;-72
2022/06/10 02:11:48;;;;;;;4.35;1.77;;;17.90;99.90;;;;;;1042746;28;20021;-70
2022/06/10 02:12:30;;;;;;;2.55;1.50;;;17.90;99.90;;;;;;1042782;28;20033;-72
2022/06/10 02:13:18;;;;;;;4.00;1.73;;;17.90;99.90;;;;;;1042933;28;20503;-73
2022/06/10 02:13:58;;;;;;;4.07;2.13;;;17.90;99.90;;;;;;1043180;28;20033;-74
2022/06/10 02:14:37;;;;;;;4.13;2.03;;;17.90;99.90;;;;;;1043024;28;20039;-74
2022/06/10 02:15:28;;;;;;;2.50;1.60;;;17.90;99.90;;;;;;1043053;28;20017;-74
2022/06/10 02:16:02;;;;;;;3.20;1.60;;;17.90;99.90;;;;;;1043013;28;20047;-73
2022/06/10 02:16:38;;;;;;;6.45;1.80;;;17.90;99.90;;;;;;1042973;28;20111;-71
2022/06/10 02:17:13;;;;;;;4.88;2.45;;;17.90;99.90;;;;;;1043409;28;20017;-73
2022/06/10 02:17:50;;;;;;;5.55;2.20;;;17.90;99.90;;;;;;1042534;28;20045;-73
2022/06/10 02:18:33;;;;;;;3.22;1.73;;;17.90;99.90;;;;;;1042574;28;20090;-71
2022/06/10 02:19:26;;;;;;;5.05;2.05;;;17.90;99.90;;;;;;1042778;28;20036;-71
2022/06/10 02:19:59;;;;;;;4.15;1.90;;;18.00;99.90;;;;;;1043128;28;20043;-72
2022/06/10 02:20:32;;;;;;;4.72;1.67;;;18.00;99.90;;;;;;1043079;28;20017;-72
2022/06/10 02:21:09;;;;;;;4.45;1.77;;;18.00;99.90;;;;;;1042830;28;20023;-72
2022/06/10 02:22:04;;;;;;;4.93;2.00;;;18.00;99.90;;;;;;1042878;28;20040;-72
2022/06/10 02:22:41;;;;;;;3.53;1.77;;;18.00;99.90;;;;;;1043171;28;20477;-72
2022/06/10 02:23:16;;;;;;;3.97;1.58;;;18.00;99.90;;;;;;1043242;28;20108;-72
2022/06/10 02:23:53;;;;;;;2.85;1.73;;;18.00;99.90;;;;;;1042759;28;20306;-71
2022/06/10 02:24:30;;;;;;;4.40;1.67;;;18.00;99.90;;;;;;1043046;28;20017;-72
2022/06/10 02:25:21;;;;;;;5.45;2.05;;;18.00;99.90;;;;;;1042883;28;20580;-72
2022/06/10 02:25:56;;;;;;;4.55;1.92;;;18.00;99.90;;;;;;1042849;28;20017;-73
2022/06/10 02:26:31;;;;;;;3.97;2.15;;;18.00;99.90;;;;;;1039249;28;20017;-72
2022/06/10 02:27:08;;;;;;;3.20;2.00;;;18.00;99.90;;;;;;1038310;28;20113;-73
2022/06/10 02:27:42;;;;;;;5.57;2.13;;;18.00;99.90;;;;;;1038711;28;20014;-73
2022/06/10 02:28:18;;;;;;;4.13;1.85;;;18.00;99.90;;;;;;1038731;28;20573;-72
2022/06/10 02:28:55;;;;;;;3.88;1.80;;;18.00;99.90;;;;;;1038787;28;20060;-72
2022/06/10 02:29:32;;;;;;;6.65;1.80;;;18.00;99.90;;;;;;1038791;28;20018;-74
2022/06/10 02:30:12;;;;;;;4.90;1.80;;;18.00;99.90;;;;;;1038377;28;20253;-72
2022/06/10 02:31:02;;;;;;;3.47;1.58;;;18.00;99.90;;;;;;1038531;28;20025;-72
2022/06/10 02:31:47;;;;;;;5.45;2.22;;;18.00;99.90;;;;;;1038530;28;20030;-72
2022/06/10 02:32:18;;;;;;;5.63;1.80;;;18.00;99.90;;;;;;1038191;28;20017;-70
2022/06/10 02:32:49;;;;;;;4.88;2.15;;;18.00;99.90;;;;;;1038668;28;20022;-72
2022/06/10 02:33:20;;;;;;;3.33;2.17;;;18.00;99.90;;;;;;1038275;28;20101;-72
2022/06/10 02:33:51;;;;;;;4.60;1.80;;;18.00;99.90;;;;;;1038670;28;20017;-70
2022/06/10 02:34:22;;;;;;;4.87;2.40;;;18.00;99.90;;;;;;1038244;28;20588;-72
2022/06/10 02:34:54;;;;;;;3.63;1.90;;;18.00;99.90;;;;;;1038577;28;20045;-71
2022/06/10 02:35:35;;;;;;;4.57;2.00;;;18.00;99.90;;;;;;1038442;28;20264;-73
2022/06/10 02:36:08;;;;;;;4.82;2.47;;;18.00;99.90;;;;;;1037724;28;20017;-72
2022/06/10 02:36:44;;;;;;;3.03;1.90;;;18.00;99.90;;;;;;1038398;28;20031;-74
2022/06/10 02:37:26;;;;;;;7.75;2.67;;;18.00;99.90;;;;;;1038585;28;20562;-72
2022/06/10 02:38:25;;;;;;;3.55;2.22;;;18.00;99.90;;;;;;1038869;28;20021;-73
2022/06/10 02:39:14;;;;;;;5.55;2.20;;;18.00;99.90;;;;;;1038669;28;20021;-72
2022/06/10 02:40:19;;;;;;;6.95;2.78;;;18.00;99.90;;;;;;1038606;28;20025;-72
2022/06/10 02:40:59;;;;;;;3.83;2.13;;;18.00;99.90;;;;;;1038609;28;20025;-72
2022/06/10 02:42:00;;;;;;;5.90;2.55;;;18.00;99.90;;;;;;1038804;28;20498;-72
2022/06/10 02:42:49;;;;;;;6.38;2.25;;;18.00;99.90;;;;;;1038802;28;20092;-72
2022/06/10 02:43:37;;;;;;;5.90;2.03;;;18.00;99.90;;;;;;1038978;28;20028;-72
2022/06/10 02:44:37;;;;;;;5.75;2.20;;;18.00;99.90;;;;;;1038808;28;20080;-72
2022/06/10 02:45:36;;;;;;;6.22;2.35;;;18.00;99.90;;;;;;1038813;28;20037;-71
2022/06/10 02:46:23;;;;;;;5.43;2.40;;;18.00;99.90;;;;;;1038794;28;20643;-74
2022/06/10 02:47:27;;;;;;;5.97;2.10;;;18.00;99.90;;;;;;1041186;28;20025;-71
2022/06/10 02:48:09;;;;;;;3.85;2.03;;;18.00;99.90;;;;;;1042306;28;20028;-70
2022/06/10 02:48:43;;;;;;;4.15;2.00;;;18.00;99.90;;;;;;1043059;28;20052;-71
2022/06/10 02:49:16;;;;;;;6.22;2.35;;;18.00;99.90;;;;;;1043505;28;20028;-71
2022/06/10 02:49:47;;;;;;;6.53;2.80;;;18.00;99.90;;;;;;1041509;28;20480;-71
2022/06/10 02:50:18;;;;;;;5.90;2.30;;;18.00;99.90;;;;;;1043139;28;20028;-71
2022/06/10 02:50:49;;;;;;;4.87;2.33;;;18.00;99.90;;;;;;1043331;28;20053;-71
2022/06/10 02:51:21;;;;;;;3.70;2.40;;;18.00;99.90;;;;;;1043149;28;20805;-71
2022/06/10 02:51:51;;;;;;;4.13;2.05;;;18.00;99.90;;;;;;1043672;28;20024;-71
2022/06/10 02:52:27;;;;;;;5.43;2.10;;;18.00;99.90;;;;;;1043640;28;20032;-72
2022/06/10 02:52:58;;;;;;;5.30;2.70;;;18.00;99.90;;;;;;1043416;28;20086;-70
2022/06/10 02:53:29;;;;;;;7.25;2.38;;;18.10;99.90;;;;;;1043308;28;20022;-71
2022/06/10 02:54:03;;;;;;;4.85;2.35;;;18.10;99.90;;;;;;1043093;28;20009;-72
2022/06/10 02:54:37;;;;;;;5.53;2.05;;;18.10;99.90;;;;;;1039182;28;20006;-72
2022/06/10 02:55:15;;;;;;;5.18;2.13;;;18.10;99.90;;;;;;1040267;28;20013;-72
2022/06/10 02:55:46;;;;;;;5.02;2.04;;;18.10;99.90;;;;;;1043200;28;20052;-70
2022/06/10 02:56:19;;;;;;;4.63;2.20;;;18.10;99.90;;;;;;1043430;28;20095;-70
2022/06/10 02:56:50;;;;;;;4.70;1.83;;;18.10;99.90;;;;;;1043675;28;20647;-72
2022/06/10 03:01:11;;;;;;;2.37;1.80;;;18.10;99.90;;;;;;1043501;28;20602;-71
2022/06/10 03:01:20;;;;;;;3.80;1.73;;;18.20;99.90;;;;;;1043442;28;20475;-73
2022/06/10 03:02:04;;;;;;;4.85;1.92;;;18.20;99.90;;;;;;1043615;28;20028;-74
2022/06/10 03:02:56;;;;;;;4.65;1.88;;;18.20;99.90;;;;;;1043607;28;20009;-73
2022/06/10 03:03:42;;;;;;;5.72;1.75;;;18.20;99.90;;;;;;1043200;28;20036;-71
2022/06/10 03:04:37;;;;;;;2.88;1.48;;;18.20;99.90;;;;;;1043342;28;20010;-71
2022/06/10 03:05:39;;;;;;;3.38;1.45;;;18.20;99.90;;;;;;1043411;28;20039;-74
2022/06/10 03:06:25;;;;;;;3.72;1.77;;;18.20;99.90;;;;;;1041657;28;20040;-72
2022/06/10 03:07:12;;;;;;;5.03;2.00;;;18.20;99.90;;;;;;1043369;28;20051;-71
2022/06/10 03:08:05;;;;;;;4.93;1.80;;;18.20;99.90;;;;;;1043695;28;20633;-72
2022/06/10 03:08:41;;;;;;;7.68;1.92;;;18.20;99.90;;;;;;1043763;28;20021;-73
2022/06/10 03:09:17;;;;;;;3.15;1.75;;;18.20;99.90;;;;;;1043592;28;20019;-71
2022/06/10 03:10:03;;;;;;;5.25;1.90;;;18.20;99.90;;;;;;1043552;28;20028;-71
2022/06/10 03:10:56;;;;;;;4.70;2.30;;;18.20;99.90;;;;;;1043856;28;20092;-70
2022/06/10 03:11:39;;;;;;;4.43;1.90;;;18.20;99.90;;;;;;1043670;28;20024;-72
2022/06/10 03:12:27;;;;;;;6.53;1.85;;;18.20;99.90;;;;;;1043395;28;20020;-76
2022/06/10 03:13:19;;;;;;;6.00;2.03;;;18.20;99.90;;;;;;1039464;28;20067;-71
2022/06/10 03:13:58;;;;;;;4.43;1.65;;;18.20;99.90;;;;;;1039137;28;20041;-73
2022/06/10 03:14:41;;;;;;;4.47;1.98;;;18.20;99.90;;;;;;1039242;28;20464;-74
2022/06/10 03:15:11;;;;;;;5.97;1.70;;;18.20;99.90;;;;;;1039277;28;20033;-73
2022/06/10 03:16:06;;;;;;;5.40;1.60;;;18.20;99.90;;;;;;1039362;28;20013;-73
2022/06/10 03:17:06;;;;;;;3.08;1.88;;;18.20;99.90;;;;;;1039507;28;20055;-73
2022/06/10 03:18:01;;;;;;;2.80;1.58;;;18.20;99.90;;;;;;1039471;28;20030;-73
2022/06/10 03:19:00;;;;;;;4.13;1.63;;;18.20;99.90;;;;;;1039343;28;20058;-73
2022/06/10 03:19:38;;;;;;;4.13;1.63;;;18.20;99.90;;;;;;1039501;28;20021;-72
2022/06/10 03:20:28;;;;;;;4.68;2.08;;;18.20;99.90;;;;;;1039625;28;20064;-71
2022/06/10 03:21:17;;;;;;;4.88;1.65;;;18.20;99.90;;;;;;1035589;28;20121;-69
2022/06/10 03:21:55;;;;;;;2.92;1.67;;;18.20;99.90;;;;;;1043166;28;20017;-72
2022/06/10 03:22:47;;;;;;;4.43;2.10;;;18.20;99.90;;;;;;1043017;28;20048;-73
2022/06/10 03:24:01;;;;;;;3.75;1.80;;;18.20;99.90;;;;;;1043825;28;20098;-70
2022/06/10 03:24:58;;;;;;;5.45;1.75;;;18.20;99.90;;;;;;1043662;28;20017;-72
2022/06/10 03:25:43;;;;;;;4.78;2.08;;;18.20;99.90;;;;;;1043241;28;20037;-71
2022/06/10 03:26:34;;;;;;;5.18;1.98;;;18.20;99.90;;;;;;1043784;28;20102;-72
2022/06/10 03:27:23;;;;;;;3.85;1.75;;;18.20;99.90;;;;;;1043478;28;20070;-72
2022/06/10 03:28:16;;;;;;;3.92;2.03;;;18.20;99.90;;;;;;1043300;28;20095;-72
2022/06/10 03:29:12;;;;;;;5.45;1.95;;;18.30;99.90;;;;;;1042846;28;20040;-72
2022/06/10 03:30:09;;;;;;;5.93;2.03;;;18.30;99.90;;;;;;1040577;28;20025;-71
2022/06/10 03:30:56;;;;;;;3.38;1.63;;;18.20;99.90;;;;;;1043379;28;20824;-73
2022/06/10 03:31:39;;;;;;;2.92;1.70;;;18.30;99.90;;;;;;1038986;28;20069;-73